Time;durP1;ratioP1;P1;durP2;ratioP2;P2;SDS_P1;SDS_P2;PMS_P1;PMS_P2;Temp;Humidity;BMP_temperature;BMP_pressure;BME280_temperature;BME280_humidity;BME280_pressure;Samples;Min_cycle;Max_cycle;Signal;HPM_P1;HPM_P2
2022/07/27 00:01:26;;;;;;;3.97;1.20;;;16.30;18.70;;;16.47;54.73;101097.25;5069520;28;20397;-75
2022/07/27 00:03:55;;;;;;;3.80;1.03;;;16.40;18.70;;;16.52;54.53;101100.09;5071232;28;20795;-74
2022/07/27 00:06:24;;;;;;;3.23;1.40;;;16.40;18.60;;;16.46;54.87;101103.75;5068013;28;20545;-74
2022/07/27 00:08:53;;;;;;;3.80;1.50;;;16.40;18.90;;;16.36;55.15;101106.28;5070170;28;20473;-75
2022/07/27 00:11:22;;;;;;;4.83;1.43;;;16.30;19.00;;;16.32;55.26;101105.06;5068990;28;20497;-75
2022/07/27 00:13:51;;;;;;;4.87;1.37;;;16.20;19.20;;;16.39;55.44;101094.88;5070924;28;20404;-75
2022/07/27 00:16:20;;;;;;;4.90;1.00;;;16.20;19.90;;;16.49;54.72;101106.06;5064561;28;20458;-75
2022/07/27 00:18:50;;;;;;;2.70;1.37;;;16.30;18.90;;;16.36;54.52;101107.09;5070554;28;20445;-75
2022/07/27 00:21:19;;;;;;;3.03;1.30;;;16.20;18.20;;;16.34;54.43;101108.41;5071466;28;20503;-75
2022/07/27 00:23:48;;;;;;;4.40;0.90;;;16.20;18.30;;;16.30;54.80;101110.78;5066603;28;20504;-74
2022/07/27 00:26:17;;;;;;;2.33;1.27;;;16.20;18.80;;;16.28;54.63;101104.69;5065991;28;20455;-74
2022/07/27 00:28:46;;;;;;;1.43;0.90;;;16.20;18.70;;;16.25;54.59;101109.81;5058709;28;20445;-75
2022/07/27 00:31:15;;;;;;;3.43;1.13;;;16.20;18.60;;;16.12;54.89;101110.03;5059776;28;20405;-75
2022/07/27 00:33:44;;;;;;;4.40;1.13;;;16.00;18.50;;;16.00;54.96;101108.09;5068391;28;20438;-73
2022/07/27 00:36:15;;;;;;;2.80;1.17;;;15.90;18.60;;;15.85;55.42;101110.41;5069822;28;20525;-73
2022/07/27 00:38:44;;;;;;;10.73;1.50;;;15.80;19.00;;;15.78;55.39;101104.19;5065894;28;20421;-74
2022/07/27 00:41:12;;;;;;;1.30;0.90;;;15.70;19.00;;;15.67;55.68;101107.72;5062249;28;20784;-75
2022/07/27 00:43:56;;;;;;;2.60;1.07;;;15.60;19.50;;;15.64;55.91;101092.63;5066163;28;20442;-74
2022/07/27 00:46:28;;;;;;;3.50;1.30;;;15.60;20.00;;;15.52;56.48;101093.66;5059089;28;20447;-74
2022/07/27 00:48:57;;;;;;;6.13;1.50;;;15.50;20.40;;;15.44;56.74;101092.00;5073517;28;20593;-74
2022/07/27 00:51:27;;;;;;;6.83;1.00;;;15.40;21.10;;;15.34;57.08;101090.91;5055723;28;20421;-74
2022/07/27 00:53:58;;;;;;;3.73;1.80;;;15.30;21.40;;;15.31;56.93;101094.91;5077206;28;20507;-75
2022/07/27 00:56:27;;;;;;;2.10;1.10;;;15.30;21.90;;;15.30;57.20;101095.16;5066936;28;20440;-74
2022/07/27 00:58:57;;;;;;;1.40;0.80;;;15.20;22.00;;;15.16;57.13;101100.75;5062568;28;20800;-75
2022/07/27 01:01:25;;;;;;;2.80;1.10;;;15.10;22.20;;;15.13;57.55;101105.84;5071169;28;20416;-75
2022/07/27 01:03:55;;;;;;;2.33;1.20;;;15.10;23.20;;;15.09;57.72;101105.47;5074682;28;20752;-74
2022/07/27 01:06:27;;;;;;;11.00;1.13;;;15.10;23.50;;;15.00;58.15;101104.09;5069405;28;20424;-75
2022/07/27 01:11:41;;;;;;;2.80;1.37;;;14.90;25.40;;;14.99;58.74;101101.59;5070441;28;20450;-74
2022/07/27 01:14:13;;;;;;;1.90;1.00;;;15.00;26.20;;;14.91;58.96;101118.25;5070801;28;20438;-74
2022/07/27 01:16:44;;;;;;;1.43;0.97;;;14.90;26.80;;;14.86;59.00;101110.75;5072723;28;20421;-72
2022/07/27 01:19:14;;;;;;;2.93;0.97;;;14.80;27.40;;;14.72;59.48;101111.91;5068134;28;20515;-74
2022/07/27 01:21:45;;;;;;;2.33;0.90;;;14.70;28.30;;;14.69;59.78;101110.47;5069979;28;20958;-73
2022/07/27 01:24:14;;;;;;;10.40;1.20;;;14.70;29.60;;;14.69;59.83;101113.19;5074854;28;20417;-74
2022/07/27 01:26:43;;;;;;;3.13;1.40;;;14.70;30.60;;;14.69;59.78;101113.19;5074439;28;20421;-71
2022/07/27 01:29:11;;;;;;;5.27;1.20;;;14.60;31.10;;;14.67;59.84;101109.84;5071472;28;20430;-75
2022/07/27 01:31:41;;;;;;;1.93;0.90;;;14.60;32.50;;;14.67;59.94;101106.28;5073459;28;20503;-74
2022/07/27 01:34:10;;;;;;;2.87;1.00;;;14.60;32.80;;;14.60;60.30;101105.53;5069170;28;20449;-74
2022/07/27 01:36:39;;;;;;;5.20;1.23;;;14.60;34.20;;;14.50;60.75;101108.78;5061866;28;20438;-72
2022/07/27 01:39:09;;;;;;;2.13;1.03;;;14.50;35.90;;;14.48;60.80;101105.41;5071683;28;20509;-74
2022/07/27 01:41:38;;;;;;;4.27;1.20;;;14.50;37.30;;;14.43;61.42;101104.41;5050275;28;20422;-74
2022/07/27 01:44:07;;;;;;;4.10;1.00;;;14.40;39.60;;;14.32;61.45;101109.53;5072161;28;20442;-74
2022/07/27 01:46:36;;;;;;;3.20;0.90;;;14.30;41.10;;;14.34;61.31;101115.56;5067530;28;20443;-74
2022/07/27 01:49:06;;;;;;;2.00;1.37;;;14.30;42.90;;;14.26;61.68;101121.28;5071614;28;20445;-73
2022/07/27 01:51:36;;;;;;;3.43;0.93;;;14.20;43.90;;;14.17;62.11;101122.63;5051796;28;20454;-73
2022/07/27 01:54:05;;;;;;;2.60;1.07;;;14.10;46.60;;;14.17;62.13;101116.34;5058159;28;20439;-75
2022/07/27 01:56:36;;;;;;;2.83;1.40;;;14.10;47.80;;;14.20;62.50;101114.00;5073974;28;20470;-75
2022/07/27 01:59:04;;;;;;;1.57;0.87;;;14.10;50.30;;;14.04;62.64;101109.06;5053648;28;20782;-74
2022/07/27 02:01:34;;;;;;;2.33;1.00;;;14.00;51.50;;;14.04;62.77;101111.78;5073273;28;20496;-73
2022/07/27 02:04:03;;;;;;;3.27;1.07;;;14.00;53.40;;;14.01;63.26;101120.41;5073994;28;20938;-74
2022/07/27 02:06:32;;;;;;;2.43;1.10;;;14.00;56.00;;;13.96;63.18;101117.50;5055057;28;20466;-74
2022/07/27 02:09:01;;;;;;;3.00;1.30;;;14.00;56.90;;;13.81;63.53;101116.97;5064134;28;20435;-73
2022/07/27 02:14:17;;;;;;;2.93;1.27;;;13.80;62.70;;;13.76;63.79;101108.63;5068370;28;20489;-74
2022/07/27 02:16:48;;;;;;;3.63;0.97;;;13.80;64.30;;;13.70;64.05;101109.53;5074124;28;20458;-73
2022/07/27 02:19:18;;;;;;;3.73;1.23;;;13.70;69.00;;;13.73;64.31;101109.91;5073644;28;20526;-73
2022/07/27 02:21:47;;;;;;;3.30;1.37;;;13.70;71.70;;;13.71;64.32;101113.88;5047402;28;20448;-74
2022/07/27 02:24:16;;;;;;;2.90;1.30;;;13.70;72.50;;;13.48;65.03;101101.66;5068660;28;20430;-73
2022/07/27 02:26:44;;;;;;;1.30;0.80;;;13.60;77.60;;;13.58;64.98;101105.81;5058228;28;20445;-74
2022/07/27 02:29:18;;;;;;;4.13;1.17;;;13.60;81.30;;;13.59;65.14;101115.63;5072209;28;20504;-73
2022/07/27 02:31:47;;;;;;;1.97;1.33;;;13.60;83.50;;;13.62;65.04;101112.47;5066434;28;20427;-74
2022/07/27 02:34:17;;;;;;;4.73;1.53;;;13.60;85.00;;;13.59;65.10;101112.91;5072301;28;20446;-74
2022/07/27 02:36:46;;;;;;;2.13;1.27;;;13.50;87.50;;;13.57;65.22;101115.00;5064789;28;20453;-73
2022/07/27 02:39:15;;;;;;;3.10;1.10;;;13.50;88.80;;;13.51;65.59;101113.97;5072780;28;20508;-74
2022/07/27 02:41:45;;;;;;;5.67;1.40;;;13.50;90.90;;;13.56;65.36;101113.31;5079753;28;20445;-74
2022/07/27 02:44:14;;;;;;;3.57;1.10;;;13.50;91.00;;;13.51;65.67;101121.31;5083604;28;20417;-74
2022/07/27 02:46:44;;;;;;;5.07;1.10;;;13.50;91.20;;;13.43;65.95;101119.66;5082054;28;20497;-73
2022/07/27 02:49:13;;;;;;;3.33;1.93;;;13.40;92.20;;;13.44;65.92;101119.47;5069652;28;20647;-73
2022/07/27 02:51:42;;;;;;;1.77;1.40;;;13.40;93.30;;;13.47;65.62;101126.34;5087053;28;20510;-74
2022/07/27 02:54:11;;;;;;;2.60;1.00;;;13.40;93.40;;;13.39;65.99;101122.00;5082706;28;20464;-75
2022/07/27 02:56:40;;;;;;;4.53;0.90;;;13.40;94.20;;;13.31;66.60;101122.22;5079624;28;20474;-75
2022/07/27 02:59:09;;;;;;;3.50;1.50;;;13.30;95.30;;;13.25;67.13;101127.69;5086874;28;20541;-74
2022/07/27 03:01:39;;;;;;;3.73;1.40;;;13.30;97.00;;;13.26;67.43;101124.75;5077393;28;20822;-73
2022/07/27 03:04:09;;;;;;;6.03;1.20;;;13.30;98.60;;;13.27;67.34;101120.97;5046681;28;20452;-73
2022/07/27 03:06:38;;;;;;;2.23;1.03;;;13.30;98.30;;;13.29;67.14;101124.31;5056533;28;20453;-74
2022/07/27 03:09:09;;;;;;;2.43;1.40;;;13.30;99.00;;;13.25;67.14;101116.81;5055368;28;20545;-74
2022/07/27 03:11:39;;;;;;;1.90;1.30;;;13.20;98.90;;;13.22;67.46;101118.06;5050105;28;20457;-73
2022/07/27 03:14:08;;;;;;;4.40;1.23;;;13.20;99.50;;;13.20;67.53;101120.19;5062149;28;20581;-75
2022/07/27 03:16:38;;;;;;;2.13;1.10;;;13.20;99.60;;;13.12;67.60;101122.31;5069373;28;20555;-73
2022/07/27 03:19:08;;;;;;;4.80;1.43;;;13.20;99.90;;;13.21;67.53;101124.56;5068937;28;20438;-74
2022/07/27 03:21:38;;;;;;;4.37;1.30;;;13.20;99.90;;;13.28;67.21;101124.53;5051860;28;20838;-74
2022/07/27 03:24:07;;;;;;;1.73;1.00;;;13.20;99.90;;;13.31;67.38;101115.97;5063130;28;20441;-74
2022/07/27 03:26:36;;;;;;;2.00;1.10;;;13.20;99.90;;;13.32;67.24;101126.59;5070253;28;20549;-74
2022/07/27 03:29:05;;;;;;;3.13;1.27;;;13.20;99.90;;;13.31;67.60;101130.38;5072693;28;20820;-73
2022/07/27 03:31:34;;;;;;;2.50;1.20;;;13.20;99.90;;;13.42;67.14;101123.44;5067523;28;20442;-73
2022/07/27 03:34:02;;;;;;;2.67;1.00;;;13.30;99.90;;;13.43;66.93;101125.94;5063165;28;20524;-75
2022/07/27 03:36:35;;;;;;;2.90;1.30;;;13.40;99.80;;;13.48;67.08;101130.72;5064886;28;20496;-73
2022/07/27 03:39:04;;;;;;;4.40;1.30;;;13.40;99.80;;;13.63;67.18;101128.59;5072255;28;20416;-73
2022/07/27 03:41:33;;;;;;;2.70;0.97;;;13.40;99.90;;;14.06;65.46;101141.53;5066084;28;20443;-74
2022/07/27 03:44:02;;;;;;;1.30;0.87;;;13.60;98.80;;;14.09;66.06;101150.06;5068907;28;20442;-75
2022/07/27 03:46:32;;;;;;;6.23;1.40;;;13.70;99.30;;;13.92;66.37;101147.03;5067830;28;21037;-74
2022/07/27 03:49:01;;;;;;;1.67;1.23;;;13.70;98.60;;;13.83;66.88;101142.09;5068085;28;20446;-74
2022/07/27 03:51:44;;;;;;;1.70;1.20;;;13.70;99.20;;;13.89;66.54;101139.31;5072191;28;20434;-72
2022/07/27 03:54:13;;;;;;;5.33;1.50;;;13.80;98.80;;;13.79;66.89;101146.28;5048404;28;20822;-74
2022/07/27 03:56:47;;;;;;;4.87;1.53;;;13.70;98.90;;;13.80;67.80;101142.50;5070578;28;20490;-74
2022/07/27 03:59:16;;;;;;;4.53;2.00;;;13.70;99.90;;;13.75;66.73;101145.88;5069282;28;20491;-73
2022/07/27 04:01:45;;;;;;;2.67;0.97;;;13.70;99.20;;;13.66;67.18;101151.78;5046074;28;20861;-73
2022/07/27 04:04:15;;;;;;;2.70;1.10;;;13.60;99.10;;;13.56;67.47;101152.22;5071850;28;20562;-73
2022/07/27 04:06:46;;;;;;;2.60;1.40;;;13.50;99.90;;;13.55;67.36;101147.03;5053977;28;20450;-74
2022/07/27 04:09:15;;;;;;;1.90;1.40;;;13.40;99.90;;;13.56;67.47;101151.41;5047723;28;20504;-74
2022/07/27 04:11:48;;;;;;;3.80;0.93;;;13.40;99.90;;;13.58;67.48;101149.31;5052176;28;20424;-75
2022/07/27 04:14:19;;;;;;;3.70;1.20;;;13.40;99.90;;;13.60;67.37;101152.66;5075175;28;20870;-73
2022/07/27 04:16:48;;;;;;;3.30;1.10;;;13.40;99.90;;;13.49;67.46;101149.56;5058254;28;20461;-74
2022/07/27 04:19:18;;;;;;;2.33;1.47;;;13.30;99.90;;;13.58;67.21;101143.88;5069884;28;20445;-74
2022/07/27 04:21:49;;;;;;;3.77;1.30;;;13.40;99.90;;;13.61;67.39;101148.88;5057698;28;20458;-73
2022/07/27 04:24:18;;;;;;;4.93;1.53;;;13.40;99.90;;;13.68;66.86;101149.69;5058092;28;20432;-74
2022/07/27 04:26:47;;;;;;;3.23;1.10;;;13.40;99.90;;;13.82;67.02;101148.56;5076199;28;20458;-73
2022/07/27 04:29:16;;;;;;;8.93;1.30;;;13.50;99.90;;;13.99;66.60;101147.00;5062646;28;20442;-74
2022/07/27 04:31:49;;;;;;;2.90;1.40;;;13.60;99.90;;;14.64;64.47;101139.44;5054394;28;20477;-74
2022/07/27 04:34:18;;;;;;;3.50;1.23;;;14.00;99.90;;;15.63;62.63;101139.25;5051963;28;20421;-75
2022/07/27 04:36:49;;;;;;;1.27;1.07;;;14.60;98.10;;;16.32;61.69;101135.09;5064676;22;20560;-72
2022/07/27 04:39:18;;;;;;;5.20;1.40;;;15.40;93.30;;;16.91;59.00;101148.63;5048047;28;20439;-72
2022/07/27 04:41:47;;;;;;;4.33;1.30;;;15.90;77.00;;;17.55;58.02;101138.56;5050860;28;20923;-72
2022/07/27 04:44:16;;;;;;;3.43;1.13;;;16.30;68.00;;;18.22;53.75;101142.34;5051529;28;20434;-74
2022/07/27 04:46:45;;;;;;;4.60;1.33;;;16.70;47.70;;;19.50;52.09;101130.41;5046512;28;20925;-73
2022/07/27 04:49:14;;;;;;;1.20;0.90;;;17.30;46.40;;;21.25;47.69;101136.97;5049244;28;20448;-73
2022/07/27 04:51:44;;;;;;;1.47;1.00;;;18.40;37.20;;;22.20;44.96;101136.81;5046874;28;20474;-73
2022/07/27 04:54:15;;;;;;;3.90;1.67;;;19.30;26.00;;;23.03;43.76;101132.69;5049124;28;20467;-73
2022/07/27 04:56:44;;;;;;;3.00;1.30;;;20.00;21.00;;;22.62;42.62;101134.63;5044145;28;20984;-73
2022/07/27 04:59:13;;;;;;;4.43;1.23;;;20.20;16.20;;;21.96;43.51;101134.56;5046538;28;20443;-75
2022/07/27 05:01:42;;;;;;;1.93;1.23;;;19.80;15.70;;;22.34;42.62;101132.41;5048881;28;20422;-73
2022/07/27 05:04:11;;;;;;;3.07;0.80;;;19.90;14.50;;;23.10;41.92;101129.59;5043627;28;20463;-73
2022/07/27 05:06:40;;;;;;;2.10;0.90;;;20.00;13.90;;;22.38;42.18;101133.50;5047767;28;20899;-73
2022/07/27 05:09:09;;;;;;;5.10;1.50;;;20.20;11.80;;;20.84;44.54;101137.78;5051324;28;20437;-74
2022/07/27 05:11:40;;;;;;;1.50;1.17;;;19.60;11.70;;;20.89;44.80;101140.59;5051218;28;20464;-73
2022/07/27 05:14:20;;;;;;;1.93;1.07;;;19.50;12.30;;;22.61;42.45;101138.47;5042858;28;20478;-74
2022/07/27 05:16:49;;;;;;;5.47;1.00;;;19.70;13.70;;;21.80;42.60;101143.84;5041745;28;20966;-74
2022/07/27 05:19:18;;;;;;;4.30;1.47;;;20.00;10.80;;;20.78;44.81;101145.19;5049592;28;20768;-74
2022/07/27 05:21:47;;;;;;;3.30;1.10;;;19.50;11.20;;;20.34;45.89;101144.53;5050632;28;20534;-73
2022/07/27 05:24:16;;;;;;;4.20;1.33;;;19.20;12.40;;;19.03;48.97;101140.13;5045352;28;20440;-74
2022/07/27 05:26:47;;;;;;;4.63;1.10;;;18.60;13.70;;;17.93;51.85;101159.03;5044708;28;20431;-73
2022/07/27 05:29:16;;;;;;;2.13;1.50;;;17.80;16.90;;;17.42;54.05;101157.16;5050615;28;20493;-73
2022/07/27 05:31:45;;;;;;;1.80;1.00;;;17.30;19.30;;;17.12;55.35;101165.50;5037664;28;20411;-73
2022/07/27 05:34:14;;;;;;;2.70;0.83;;;16.70;22.70;;;17.08;54.97;101164.34;5044840;28;20472;-73
2022/07/27 05:36:43;;;;;;;2.00;1.00;;;16.50;24.20;;;16.05;57.80;101160.09;5048770;28;20525;-71
2022/07/27 05:39:11;;;;;;;2.23;1.23;;;16.00;27.10;;;15.86;59.17;101174.84;5048203;28;20406;-73
2022/07/27 05:41:42;;;;;;;3.13;1.40;;;15.70;33.60;;;15.96;59.83;101169.66;5043318;28;20436;-73
2022/07/27 05:44:12;;;;;;;5.40;1.30;;;15.60;41.60;;;16.18;59.56;101171.88;5046675;28;20547;-73
2022/07/27 05:46:41;;;;;;;5.13;0.97;;;15.70;46.20;;;15.98;59.82;101174.88;5045997;28;20446;-73
2022/07/27 05:49:10;;;;;;;1.87;1.03;;;15.70;45.80;;;15.82;60.61;101176.38;5043827;28;20402;-73
2022/07/27 05:51:39;;;;;;;2.47;1.60;;;15.60;48.30;;;15.91;60.63;101179.59;5051571;28;20434;-73
2022/07/27 05:54:08;;;;;;;4.83;1.80;;;15.60;52.10;;;15.96;60.75;101187.94;5046394;28;20430;-73
2022/07/27 05:56:37;;;;;;;4.00;1.03;;;15.60;54.30;;;16.12;60.47;101187.28;5043188;28;20535;-73
2022/07/27 05:59:06;;;;;;;3.03;1.20;;;15.70;54.90;;;16.19;60.28;101184.47;5039161;28;20456;-72
2022/07/27 06:01:36;;;;;;;2.33;1.30;;;15.90;54.60;;;16.28;59.89;101188.53;5046366;28;20463;-72
2022/07/27 06:04:06;;;;;;;1.60;1.00;;;16.00;53.20;;;16.31;59.67;101193.53;5039838;28;20472;-72
2022/07/27 06:09:21;;;;;;;4.10;1.30;;;16.20;47.60;;;16.12;60.28;101198.19;5040966;28;20463;-73
2022/07/27 06:11:50;;;;;;;1.20;0.80;;;16.00;50.20;;;16.24;59.96;101195.53;5047058;28;20429;-73
2022/07/27 06:14:19;;;;;;;3.37;1.60;;;16.00;50.20;;;16.42;59.09;101193.56;5051045;28;20923;-72
2022/07/27 06:16:49;;;;;;;3.53;1.17;;;16.20;47.90;;;16.61;59.05;101201.69;5047002;28;20538;-73
2022/07/27 06:19:18;;;;;;;4.50;1.27;;;16.20;48.00;;;16.71;58.36;101197.31;5040148;28;20479;-72
2022/07/27 06:21:47;;;;;;;2.10;1.23;;;16.40;45.50;;;16.67;58.17;101190.69;5041715;28;20399;-73
2022/07/27 06:24:21;;;;;;;9.80;1.70;;;16.50;43.80;;;16.72;57.90;101199.00;5049124;28;20541;-74
2022/07/27 06:26:50;;;;;;;3.20;1.13;;;16.50;42.20;;;16.90;56.82;101187.97;5037205;28;20407;-74
2022/07/27 06:29:19;;;;;;;3.47;1.20;;;16.60;39.60;;;16.67;56.87;101190.69;5047815;28;20458;-73
2022/07/27 06:31:49;;;;;;;1.53;0.90;;;16.50;36.60;;;16.92;56.72;101190.47;5044292;28;20412;-72
2022/07/27 06:34:18;;;;;;;3.17;1.40;;;16.60;37.50;;;16.74;56.93;101190.56;5044031;28;20445;-72
2022/07/27 06:36:47;;;;;;;3.27;1.33;;;16.60;35.60;;;16.91;56.24;101188.78;5045758;28;20417;-72
2022/07/27 06:39:16;;;;;;;3.47;1.47;;;16.70;34.80;;;17.26;56.55;101197.00;5046618;28;20445;-72
2022/07/27 06:41:44;;;;;;;4.83;1.43;;;16.90;36.70;;;17.51;54.93;101196.75;5044138;28;20435;-71
2022/07/27 06:44:14;;;;;;;7.47;1.90;;;17.10;32.60;;;17.36;55.53;101191.78;5042683;28;20551;-73
2022/07/27 06:46:43;;;;;;;5.23;1.40;;;17.10;32.00;;;17.48;55.64;101194.47;5048596;28;20451;-73
2022/07/27 06:49:14;;;;;;;3.33;1.00;;;17.10;32.20;;;17.02;55.99;101189.88;5042892;28;20441;-75
2022/07/27 06:51:43;;;;;;;2.90;1.10;;;16.90;31.00;;;16.86;55.55;101194.16;5037565;28;20465;-72
2022/07/27 06:54:12;;;;;;;1.47;0.97;;;16.70;29.90;;;16.71;56.35;101200.06;5045214;28;20459;-73
2022/07/27 06:56:41;;;;;;;2.27;1.10;;;16.60;31.40;;;16.41;57.76;101193.81;5050067;28;20434;-73
2022/07/27 06:59:10;;;;;;;4.20;1.83;;;16.30;33.80;;;16.82;56.97;101199.25;5045704;28;20548;-73
2022/07/27 07:01:39;;;;;;;6.53;1.47;;;16.40;35.20;;;17.16;56.43;101192.13;5050325;28;20893;-74
2022/07/27 07:04:15;;;;;;;1.67;1.20;;;16.70;35.80;;;17.26;55.97;101200.59;5045469;28;20999;-72
2022/07/27 07:06:52;;;;;;;5.53;1.40;;;16.80;33.70;;;17.43;55.05;101197.94;5041100;28;20535;-73
2022/07/27 07:09:20;;;;;;;6.40;1.73;;;17.00;31.50;;;17.61;55.21;101192.38;5049999;28;20473;-72
2022/07/27 07:11:49;;;;;;;5.97;1.50;;;17.20;31.80;;;17.66;54.20;101203.41;5043846;28;20521;-73
2022/07/27 07:14:18;;;;;;;1.70;1.03;;;17.20;29.70;;;17.85;54.09;101208.72;5058753;28;20633;-72
2022/07/27 07:16:47;;;;;;;5.70;1.80;;;17.30;28.50;;;17.76;52.90;101206.38;5066018;28;20489;-72
2022/07/27 07:19:18;;;;;;;2.17;1.03;;;17.40;26.00;;;17.57;52.73;101207.53;5068452;28;20430;-73
2022/07/27 07:21:47;;;;;;;6.57;2.33;;;17.40;24.80;;;17.44;53.33;101207.81;5058503;28;20447;-74
2022/07/27 07:24:16;;;;;;;3.33;1.10;;;17.20;24.80;;;17.54;52.00;101208.03;5057022;28;20434;-72
2022/07/27 07:26:45;;;;;;;3.10;1.23;;;17.30;23.30;;;17.68;52.78;101198.53;5056031;28;20437;-74
2022/07/27 07:29:15;;;;;;;5.43;1.03;;;17.30;24.20;;;17.63;51.79;101212.09;5052175;28;20437;-72
2022/07/27 07:31:44;;;;;;;3.10;1.00;;;17.40;21.70;;;17.65;52.35;101203.66;5047246;28;20409;-73
2022/07/27 07:34:12;;;;;;;1.67;0.80;;;17.40;22.50;;;18.20;50.93;101206.69;5043692;28;20458;-72
2022/07/27 07:36:44;;;;;;;2.60;0.93;;;17.60;21.90;;;17.94;50.18;101210.00;5043003;28;20418;-72
2022/07/27 07:39:13;;;;;;;2.17;0.80;;;17.60;19.20;;;18.61;50.55;101213.78;5047787;28;20443;-72
2022/07/27 07:41:43;;;;;;;1.20;0.87;;;18.00;21.10;;;18.44;49.92;101207.41;5048664;28;20493;-72
2022/07/27 07:44:12;;;;;;;2.60;0.73;;;18.10;18.90;;;18.51;48.54;101210.81;5049554;28;20430;-73
2022/07/27 07:46:40;;;;;;;1.93;0.83;;;18.20;17.00;;;18.64;49.29;101214.09;5044165;28;20420;-73
2022/07/27 07:49:14;;;;;;;2.33;0.90;;;18.20;17.80;;;18.98;48.02;101205.88;5044830;28;20401;-72
2022/07/27 07:51:46;;;;;;;5.73;1.20;;;18.40;16.50;;;18.13;48.90;101216.94;5046563;28;20477;-72
2022/07/27 07:54:14;;;;;;;3.00;1.47;;;18.10;15.10;;;18.46;49.37;101219.78;5043001;28;20428;-73
2022/07/27 07:56:43;;;;;;;2.63;1.00;;;18.00;16.50;;;18.32;48.41;101218.41;5042380;28;20413;-73
2022/07/27 07:59:12;;;;;;;3.07;1.00;;;18.10;14.70;;;18.24;48.42;101211.44;5043837;28;20458;-72
2022/07/27 08:01:42;;;;;;;2.63;0.97;;;18.00;14.40;;;18.64;47.14;101210.53;5037558;28;20447;-72
2022/07/27 08:04:11;;;;;;;0.90;0.50;;;18.20;14.00;;;18.03;47.37;101205.78;5040979;28;20438;-73
2022/07/27 08:06:40;;;;;;;2.70;0.80;;;17.90;11.60;;;18.02;48.39;101210.44;5028299;28;20485;-72
2022/07/27 08:09:11;;;;;;;4.93;1.40;;;17.80;13.50;;;17.84;49.28;101212.53;5047013;28;20516;-72
2022/07/27 08:11:41;;;;;;;1.50;0.70;;;17.70;14.30;;;17.60;47.14;101206.28;5047843;28;20418;-72
2022/07/27 08:14:10;;;;;;;2.73;0.90;;;17.50;11.20;;;17.74;48.93;101213.97;5044214;28;20493;-75
2022/07/27 08:16:39;;;;;;;1.30;0.70;;;17.50;13.80;;;18.06;47.98;101227.22;5043945;28;20882;-72
2022/07/27 08:19:08;;;;;;;2.37;0.90;;;17.70;13.20;;;17.97;47.93;101218.56;5041320;28;20443;-72
2022/07/27 08:21:37;;;;;;;1.97;1.53;;;17.60;12.70;;;17.89;47.15;101231.78;5043290;28;20415;-72
2022/07/27 08:24:06;;;;;;;3.70;0.83;;;17.60;11.70;;;18.04;47.72;101229.38;5047395;28;20430;-72
2022/07/27 08:26:37;;;;;;;2.13;1.33;;;17.70;12.10;;;17.94;47.93;101223.69;5038365;28;20440;-71
2022/07/27 08:29:06;;;;;;;1.47;0.70;;;17.70;12.10;;;18.01;47.46;101230.69;5043929;28;20433;-72
2022/07/27 08:31:41;;;;;;;2.80;0.70;;;17.70;11.30;;;18.45;47.53;101225.50;5041882;28;20463;-72
2022/07/27 08:34:20;;;;;;;2.80;1.00;;;18.00;12.50;;;18.49;46.00;101227.50;5042828;28;20474;-72
2022/07/27 08:36:49;;;;;;;1.00;0.60;;;18.10;10.20;;;18.90;46.55;101228.25;5043452;28;20507;-72
2022/07/27 08:39:18;;;;;;;2.17;1.00;;;18.40;11.30;;;19.17;46.33;101228.41;5026273;28;20893;-72
2022/07/27 08:42:10;;;;;;;2.90;1.00;;;18.60;11.10;;;18.61;47.16;101239.28;5045016;28;20402;-72
2022/07/27 08:44:41;;;;;;;3.03;1.00;;;18.50;10.60;;;18.58;47.88;101237.03;5044176;28;20431;-73
2022/07/27 08:47:13;;;;;;;4.00;1.23;;;18.30;11.90;;;19.09;47.37;101235.97;5043957;28;20478;-74
2022/07/27 08:49:44;;;;;;;3.37;1.73;;;18.50;12.40;;;19.34;46.88;101229.22;5041603;28;20455;-71
2022/07/27 08:52:18;;;;;;;3.63;1.33;;;18.80;12.00;;;19.44;46.56;101232.13;5040017;28;20654;-71
2022/07/27 08:54:48;;;;;;;2.40;0.90;;;18.90;11.60;;;19.47;46.18;101228.88;5042915;28;20911;-72
2022/07/27 08:57:19;;;;;;;4.80;1.23;;;18.90;11.00;;;19.47;46.31;101235.19;5041269;28;20722;-73
2022/07/27 08:59:49;;;;;;;1.80;0.87;;;19.10;10.70;;;19.16;46.04;101227.59;5039984;28;20449;-73
2022/07/27 09:02:20;;;;;;;1.60;0.90;;;18.90;9.50;;;19.92;45.57;101242.41;5042440;28;20501;-74
2022/07/27 09:04:49;;;;;;;1.50;0.93;;;19.30;10.70;;;20.04;45.16;101228.53;5043300;28;20404;-72
2022/07/27 09:07:30;;;;;;;1.53;1.00;;;19.40;10.00;;;19.99;45.53;101239.47;5041208;28;20483;-70
2022/07/27 09:10:00;;;;;;;3.30;1.57;;;19.40;10.20;;;19.82;45.37;101236.78;5020150;28;20443;-71
2022/07/27 09:12:32;;;;;;;4.53;1.43;;;19.40;9.40;;;19.31;45.88;101241.53;5040042;28;20455;-71
2022/07/27 09:15:09;;;;;;;2.90;1.03;;;19.20;8.40;;;19.49;45.82;101244.03;5043090;28;20419;-72
2022/07/27 09:17:41;;;;;;;4.20;1.20;;;19.20;9.20;;;19.63;44.96;101243.66;5045553;28;20809;-71
2022/07/27 09:20:20;;;;;;;1.60;0.80;;;19.20;8.50;;;19.95;44.07;101250.94;5041382;28;21021;-72
2022/07/27 09:22:52;;;;;;;2.63;1.63;;;19.50;7.20;;;19.67;44.11;101233.81;5040932;28;20466;-72
2022/07/27 09:25:25;;;;;;;4.70;1.13;;;19.40;6.70;;;19.66;44.66;101245.88;5042024;28;20409;-71
2022/07/27 09:28:29;;;;;;;2.63;0.93;;;19.40;7.30;;;20.02;43.75;101241.69;5040324;28;20837;-72
2022/07/27 09:31:07;;;;;;;1.97;0.90;;;19.50;6.90;;;20.35;43.08;101239.63;5046989;28;20845;-72
2022/07/27 09:33:45;;;;;;;1.73;0.60;;;19.70;5.80;;;19.95;43.44;101236.38;5048439;28;20425;-71
2022/07/27 09:36:17;;;;;;;3.73;1.17;;;19.50;5.70;;;20.27;43.97;101231.84;5044816;28;20876;-72
2022/07/27 09:38:56;;;;;;;6.63;1.30;;;19.70;7.00;;;20.41;44.12;101237.78;5043388;28;20459;-72
2022/07/27 09:41:41;;;;;;;2.20;0.83;;;19.80;7.20;;;19.98;42.46;101235.06;5043590;28;20453;-73
2022/07/27 09:44:12;;;;;;;1.17;0.60;;;19.70;4.30;;;19.97;41.87;101228.72;5046269;28;20490;-71
2022/07/27 09:47:00;;;;;;;3.00;1.00;;;19.80;3.10;;;20.70;41.75;101224.59;5038637;28;20440;-72
2022/07/27 09:49:32;;;;;;;2.00;0.93;;;20.10;3.70;;;21.69;40.31;101228.34;5043045;28;20406;-72
2022/07/27 09:52:03;;;;;;;1.97;0.97;;;20.80;3.30;;;22.07;38.76;101235.44;5042381;28;20406;-72
2022/07/27 09:54:45;;;;;;;1.93;1.00;;;21.20;1.90;;;21.13;40.88;101224.44;5044171;28;20864;-70
2022/07/27 09:57:16;;;;;;;3.00;1.30;;;20.80;1.90;;;21.11;40.36;101234.00;5043791;28;20523;-72
2022/07/27 09:59:47;;;;;;;2.67;0.90;;;20.70;1.80;;;20.23;41.51;101221.63;5041424;28;20504;-72
2022/07/27 10:02:16;;;;;;;2.17;0.80;;;20.20;1.20;;;20.35;42.43;101236.91;5041148;28;20508;-71
2022/07/27 10:04:47;;;;;;;2.93;1.07;;;20.10;2.90;;;19.82;42.87;101236.78;5042307;28;20410;-73
2022/07/27 10:07:19;;;;;;;5.70;1.13;;;19.70;2.60;;;19.85;43.14;101236.25;5042328;28;20419;-72
2022/07/27 10:09:48;;;;;;;3.27;0.90;;;19.60;3.40;;;19.50;43.03;101226.47;5041472;28;20481;-72
2022/07/27 10:12:17;;;;;;;1.93;0.80;;;19.40;2.90;;;19.54;43.38;101218.56;5042105;28;20969;-72
2022/07/27 10:14:48;;;;;;;2.80;1.03;;;19.40;3.40;;;19.72;43.64;101225.66;5043681;28;20477;-73
2022/07/27 10:17:17;;;;;;;3.10;0.87;;;19.40;4.00;;;19.73;43.63;101224.56;5043851;28;20410;-72
2022/07/27 10:19:49;;;;;;;4.03;1.10;;;19.40;3.60;;;19.48;43.96;101225.06;5044526;28;20486;-72
2022/07/27 10:22:54;;;;;;;2.10;0.80;;;19.30;4.00;;;20.05;43.33;101222.78;5043522;28;20478;-72
2022/07/27 10:25:25;;;;;;;1.90;0.90;;;19.50;3.80;;;20.42;42.67;101228.44;5040429;28;20547;-73
2022/07/27 10:28:12;;;;;;;1.97;0.90;;;19.90;3.80;;;20.95;42.35;101229.50;5037389;28;20901;-73
2022/07/27 10:30:42;;;;;;;4.30;1.33;;;20.30;3.80;;;20.82;41.80;101241.75;5038360;28;20530;-73
2022/07/27 10:33:17;;;;;;;6.53;1.83;;;20.50;2.40;;;20.57;42.10;101233.28;5040899;28;20459;-73
2022/07/27 10:35:46;;;;;;;2.63;1.30;;;20.30;3.00;;;20.27;43.33;101226.34;5031413;28;20462;-73